Sao Jeronimo da Serra, Brazil
Current Conditions -  °F | °C
As of 12:00 AM on Wednesday 22 Oct 2014 (Local Time) from SBLO Reporting Station
Clear Clear  
Wind Chill: 66°   Ceiling: Unl
Heat Index: 66°   Visibility: 6mi
Dew Point: 57°   Wind: 12mph
Humidity: 73%   Direction: 110°ESE
Pressure: 30.12"   Gusts: NA
Location:  23.73°S, 50.74°W
Report Text: SBLO 220200Z 11010KT CAVOK 19/14 Q1020
Loading
Personal Weather Stations






























Interactive Weather Map
Tropical Storm Tracking
New forecast layout! Learn more

10-Day Weather Forecast

Advertisements
Track Severe Weather on mobile